Etusivu
METAR-TAF:

METAR-TAF

Lentoasemat :

Bryan, Texas, Yhdysvallat

Leveyspiiri: 30-42-56N, Pituuspiiri: 096-19-53W, korkeus merenpinnasta: 112 m

Tämänhetkinen sää

Tämä raportti tehtiin 27 minuuttia sitten, kello 01.55 UTC
tyyntä
Lämpötila 29°C
Kosteus 70%
Ilmanpaine 1014 hPa
Näkyvyys: 16.1 km
selkeää

METAR: KCFD 060155Z AUTO 00000KT 10SM CLR 29/23 A2993 RMK AO2 T02880231

Aika: 20:22 (02:22 UTC)


TAF: puuttuu

Säähavainnot ja -ennusteet yli 4000 lentoasemalta (METAR- ja TAF-raportit).

Käytössä olevat sääasemat on merkitty karttaan keltaisilla ja punaisilla pisteillä.

Aseta hiiri pisteen päälle nähdäksesi sääaseman nimen.

Klikkaa sitten nähdäksesi säähavainnot ja -ennusteet.

Kartan vaihtaminen: klikkaa mustalla rastilla varustettuja vihreitä pisteitä, niin voit zoomata sisään; viivalla varustettua vihreää pistettä, niin voit zoomata ulos tai vihreitä nuolia, niin pääset viereisille kartoille.


METAR-TAF: